Time;durP1;ratioP1;P1;durP2;ratioP2;P2;SDS_P1;SDS_P2;PMS_P1;PMS_P2;Temp;Humidity;BMP_temperature;BMP_pressure;BME280_temperature;BME280_humidity;BME280_pressure;Samples;Min_cycle;Max_cycle;Signal;HPM_P1;HPM_P2
2022/08/14 00:00:52;;;;;;;12.30;6.07;;;;;;;31.17;42.61;98604.34;4896398;29;20053;-86
2022/08/14 00:03:24;;;;;;;14.07;6.45;;;;;;;31.19;42.63;98613.94;4880798;29;20025;-87
2022/08/14 00:05:50;;;;;;;14.02;6.35;;;;;;;31.16;42.42;98629.63;4865737;29;20036;-86
2022/08/14 00:08:16;;;;;;;18.25;6.75;;;;;;;31.17;42.66;98634.00;4896800;29;20025;-88
2022/08/14 00:10:42;;;;;;;14.85;7.10;;;;;;;31.14;42.48;98637.06;4881660;29;20080;-87
2022/08/14 00:13:20;;;;;;;17.00;6.68;;;;;;;31.12;42.81;98634.53;4897709;29;20470;-88
2022/08/14 00:15:48;;;;;;;12.43;6.47;;;;;;;31.08;42.80;98625.97;4896896;29;20040;-90
2022/08/14 00:18:17;;;;;;;14.25;6.25;;;;;;;31.07;42.67;98618.94;4880627;29;20366;-86
2022/08/14 00:20:44;;;;;;;14.25;6.50;;;;;;;31.07;42.82;98621.63;4896088;29;20123;-87
2022/08/14 00:23:12;;;;;;;13.68;6.75;;;;;;;31.07;42.93;98616.22;4896029;29;20028;-88
2022/08/14 00:25:39;;;;;;;14.80;6.38;;;;;;;31.08;42.79;98628.69;4895970;29;20029;-86
2022/08/14 00:28:08;;;;;;;13.60;6.35;;;;;;;31.05;42.81;98622.81;4896080;29;20029;-85
2022/08/14 00:30:35;;;;;;;15.30;6.03;;;;;;;31.04;42.54;98621.16;4881531;29;20344;-86
2022/08/14 00:33:01;;;;;;;16.42;6.40;;;;;;;31.04;42.60;98624.66;4895937;29;20037;-86
2022/08/14 00:35:27;;;;;;;15.40;6.47;;;;;;;31.01;42.72;98627.72;4880733;29;20101;-87
2022/08/14 00:37:53;;;;;;;18.95;6.55;;;;;;;30.99;42.52;98629.75;4880794;29;20028;-87
2022/08/14 00:40:19;;;;;;;13.65;5.45;;;;;;;30.93;42.53;98634.00;4880650;29;20111;-87
2022/08/14 00:42:45;;;;;;;15.13;5.93;;;;;;;30.92;42.45;98624.25;4880967;29;20080;-88
2022/08/14 00:45:12;;;;;;;14.40;5.50;;;;;;;30.90;42.85;98645.13;4880148;29;20131;-86
2022/08/14 00:47:39;;;;;;;16.88;6.05;;;;;;;30.91;43.60;98648.66;4896507;29;20045;-89
2022/08/14 00:50:07;;;;;;;14.93;6.35;;;;;;;30.89;44.23;98656.94;4896345;29;20036;-87
2022/08/14 00:52:33;;;;;;;20.85;6.53;;;;;;;30.90;44.87;98647.00;4896423;29;20136;-88
2022/08/14 00:54:59;;;;;;;16.40;7.50;;;;;;;30.89;45.52;98645.34;4896373;29;20044;-85
2022/08/14 00:57:28;;;;;;;15.38;7.63;;;;;;;30.92;45.94;98645.81;4896355;29;20040;-89
2022/08/14 00:59:56;;;;;;;16.25;8.10;;;;;;;30.92;47.55;98644.97;4896351;29;20064;-88
2022/08/14 01:02:26;;;;;;;13.65;7.57;;;;;;;30.92;47.35;98655.72;4896503;29;20155;-87
2022/08/14 01:04:57;;;;;;;14.38;8.18;;;;;;;30.87;47.72;98658.13;4883152;29;20519;-88
2022/08/14 01:07:24;;;;;;;13.13;8.32;;;;;;;30.85;48.20;98654.78;4897256;29;20451;-86
2022/08/14 01:09:57;;;;;;;15.82;8.90;;;;;;;30.89;48.21;98661.50;4865908;29;20033;-88
2022/08/14 01:12:24;;;;;;;12.88;8.30;;;;;;;30.89;48.43;98672.25;4897563;29;20045;-85
2022/08/14 01:14:55;;;;;;;15.90;9.02;;;;;;;30.89;48.97;98664.19;4881751;29;20036;-88
2022/08/14 01:21:02;;;;;;;17.10;9.18;;;;;;;30.84;49.14;98680.03;4865529;29;20025;-85
2022/08/14 01:22:55;;;;;;;15.53;9.60;;;;;;;30.70;49.50;98695.94;4884009;29;20491;-88
2022/08/14 01:25:21;;;;;;;12.38;9.73;;;;;;;30.72;48.71;98695.75;4880211;29;20077;-91
2022/08/14 01:27:47;;;;;;;15.70;10.18;;;;;;;30.62;49.14;98704.00;4896008;29;20375;-87
2022/08/14 01:30:13;;;;;;;11.43;9.57;;;;;;;30.56;49.47;98710.94;4897091;29;20040;-88
2022/08/14 01:32:39;;;;;;;14.38;9.85;;;;;;;30.51;49.34;98716.84;4884418;29;20029;-88
2022/08/14 01:35:06;;;;;;;14.88;10.20;;;;;;;30.47;49.41;98706.59;4886710;29;20114;-86
2022/08/14 01:37:32;;;;;;;13.52;9.93;;;;;;;30.44;49.26;98723.13;4871253;29;20033;-87
2022/08/14 01:39:58;;;;;;;14.63;9.75;;;;;;;30.42;48.95;98724.09;4872651;29;20096;-87
2022/08/14 01:42:26;;;;;;;11.57;10.20;;;;;;;30.38;48.81;98724.63;4882680;29;20025;-87
2022/08/14 01:44:54;;;;;;;14.75;10.25;;;;;;;30.26;49.40;98722.31;4896153;29;20052;-88
2022/08/14 01:47:19;;;;;;;16.58;10.88;;;;;;;30.16;49.36;98724.34;4880308;29;20028;-86
2022/08/14 01:49:45;;;;;;;14.07;11.15;;;;;;;30.19;49.25;98729.41;4881101;29;20029;-87
2022/08/14 01:52:11;;;;;;;16.55;11.05;;;;;;;30.16;49.18;98727.03;4895988;29;20112;-87
2022/08/14 01:54:37;;;;;;;16.88;11.13;;;;;;;30.14;49.24;98739.84;4881544;29;20029;-86
2022/08/14 01:57:10;;;;;;;16.38;10.93;;;;;;;30.02;49.61;98745.53;4883064;29;20111;-86
2022/08/14 01:59:39;;;;;;;14.93;11.13;;;;;;;29.97;49.59;98747.06;4883330;29;20069;-85
2022/08/14 02:02:11;;;;;;;15.35;11.43;;;;;;;29.92;49.75;98744.88;4867904;29;20471;-86
2022/08/14 02:04:38;;;;;;;14.38;10.55;;;;;;;29.91;49.32;98753.97;4903750;29;20029;-89
2022/08/14 02:07:04;;;;;;;12.15;10.45;;;;;;;29.86;49.79;98759.00;4900259;29;20029;-88
2022/08/14 02:09:34;;;;;;;13.38;10.77;;;;;;;29.89;49.50;98758.69;4883063;29;20029;-87
2022/08/14 02:12:01;;;;;;;14.23;10.63;;;;;;;29.83;49.60;98759.34;4883786;29;20455;-85
2022/08/14 02:14:28;;;;;;;16.20;10.43;;;;;;;29.81;49.49;98772.09;4898845;29;20451;-86
2022/08/14 02:16:56;;;;;;;13.02;10.68;;;;;;;29.81;49.76;98782.88;4898708;29;20021;-87
2022/08/14 02:19:25;;;;;;;15.30;9.93;;;;;;;29.76;49.79;98796.00;4867667;29;20065;-87
2022/08/14 02:21:56;;;;;;;11.90;10.23;;;;;;;29.73;49.60;98781.03;4883868;29;20052;-85
2022/08/14 02:24:24;;;;;;;13.10;10.27;;;;;;;29.70;49.90;98787.59;4898229;29;20036;-84
2022/08/14 02:26:52;;;;;;;13.63;9.73;;;;;;;29.73;49.69;98786.41;4882822;29;20367;-86
2022/08/14 02:29:22;;;;;;;12.43;9.05;;;;;;;29.68;49.59;98789.59;4867247;29;20108;-86
2022/08/14 02:31:54;;;;;;;12.57;9.65;;;;;;;29.66;49.78;98797.00;4897806;29;20043;-83
2022/08/14 02:34:28;;;;;;;13.50;9.60;;;;;;;29.65;49.80;98789.94;4898533;29;20464;-86
2022/08/14 02:37:01;;;;;;;12.93;9.63;;;;;;;29.70;49.83;98792.13;4898309;29;20031;-86
2022/08/14 02:39:31;;;;;;;13.98;10.60;;;;;;;29.69;49.72;98798.50;4897704;29;20378;-85
2022/08/14 02:41:58;;;;;;;17.65;10.93;;;;;;;29.74;49.09;98796.16;4868153;29;20028;-86
2022/08/14 02:44:24;;;;;;;14.20;9.40;;;;;;;29.60;49.39;98798.47;4898497;29;20096;-86
2022/08/14 02:46:53;;;;;;;13.13;9.52;;;;;;;29.55;49.46;98800.84;4867235;29;20033;-86
2022/08/14 02:49:26;;;;;;;15.50;8.98;;;;;;;29.50;49.48;98796.97;4867234;29;20037;-88
2022/08/14 02:51:53;;;;;;;11.73;8.88;;;;;;;29.53;49.31;98792.09;4898429;29;20033;-85
2022/08/14 02:54:21;;;;;;;10.73;9.18;;;;;;;29.45;49.44;98800.94;4899644;29;20096;-85
2022/08/14 02:56:49;;;;;;;14.68;9.65;;;;;;;29.41;49.63;98805.00;4884292;29;20021;-87
2022/08/14 02:59:16;;;;;;;13.65;9.73;;;;;;;29.40;49.33;98807.84;4898775;29;20053;-86
2022/08/14 03:01:42;;;;;;;17.15;9.80;;;;;;;29.40;49.64;98810.53;4867187;29;20100;-86
2022/08/14 03:04:09;;;;;;;13.02;10.18;;;;;;;29.34;49.65;98809.31;4897471;29;20036;-85
2022/08/14 03:06:37;;;;;;;11.00;9.60;;;;;;;29.34;49.60;98825.44;4885041;29;20033;-86
2022/08/14 03:09:04;;;;;;;10.90;9.27;;;;;;;29.36;49.47;98815.41;4897705;29;20029;-87
2022/08/14 03:11:30;;;;;;;14.25;10.45;;;;;;;29.31;49.62;98813.22;4866229;29;20127;-85
2022/08/14 03:13:57;;;;;;;13.45;10.32;;;;;;;29.31;49.58;98825.78;4881778;29;20025;-85
2022/08/14 03:16:25;;;;;;;13.20;10.68;;;;;;;29.37;49.42;98825.13;4881712;29;20031;-85
2022/08/14 03:18:53;;;;;;;11.30;9.55;;;;;;;29.36;49.37;98828.84;4882349;29;20060;-87
2022/08/14 03:21:22;;;;;;;14.80;9.98;;;;;;;29.35;49.39;98827.16;4866386;29;20025;-85
2022/08/14 03:23:50;;;;;;;11.57;9.43;;;;;;;29.35;49.39;98827.16;4897496;29;20107;-86
2022/08/14 03:26:21;;;;;;;10.45;9.30;;;;;;;29.29;49.53;98822.44;4882974;29;20444;-85
2022/08/14 03:28:49;;;;;;;13.95;9.40;;;;;;;29.35;49.37;98827.16;4866750;29;20033;-85
2022/08/14 03:31:20;;;;;;;11.52;9.35;;;;;;;29.30;49.38;98826.81;4866965;29;20039;-86
2022/08/14 03:33:46;;;;;;;12.00;9.40;;;;;;;29.31;49.51;98825.78;4898499;29;20029;-86
2022/08/14 03:36:13;;;;;;;14.68;9.75;;;;;;;29.32;49.16;98819.41;4866946;29;20101;-89
2022/08/14 03:38:41;;;;;;;11.85;9.15;;;;;;;29.30;49.48;98813.38;4898136;29;20033;-86
2022/08/14 03:41:27;;;;;;;14.23;10.50;;;;;;;29.24;49.68;98824.78;4866867;29;20033;-87
2022/08/14 03:43:58;;;;;;;12.93;10.05;;;;;;;29.21;49.75;98824.06;4898281;29;20044;-86
2022/08/14 03:46:29;;;;;;;13.10;9.82;;;;;;;29.24;49.75;98819.41;4886489;29;20025;-87
2022/08/14 03:48:54;;;;;;;12.88;9.88;;;;;;;29.23;49.50;98817.72;4883514;29;20035;-90
2022/08/14 03:51:22;;;;;;;12.35;9.82;;;;;;;29.17;49.67;98817.38;4899027;29;20024;-88
2022/08/14 03:53:50;;;;;;;14.48;9.80;;;;;;;29.13;49.84;98813.31;4869036;29;20059;-87
2022/08/14 03:56:16;;;;;;;12.07;9.00;;;;;;;29.13;49.90;98813.31;4901081;29;20053;-86
2022/08/14 03:58:48;;;;;;;14.48;10.70;;;;;;;29.11;49.82;98807.28;4896763;29;20039;-86
2022/08/14 04:01:18;;;;;;;12.38;10.57;;;;;;;29.13;49.55;98812.47;4896662;29;20105;-86
2022/08/14 04:03:45;;;;;;;13.50;10.43;;;;;;;29.11;49.78;98814.47;4896508;29;20033;-86
2022/08/14 04:06:11;;;;;;;16.40;10.95;;;;;;;29.11;49.79;98815.34;4865211;29;20032;-85
2022/08/14 04:08:40;;;;;;;14.18;10.77;;;;;;;29.06;50.02;98810.44;4881516;29;20024;-86
2022/08/14 04:11:07;;;;;;;11.25;9.50;;;;;;;29.04;49.87;98817.81;4881365;29;20120;-87
2022/08/14 04:13:35;;;;;;;15.27;10.13;;;;;;;29.11;49.60;98822.53;4865098;29;20059;-86
2022/08/14 04:16:07;;;;;;;14.75;11.32;;;;;;;29.06;49.82;98817.66;4883871;29;20036;-87
2022/08/14 04:18:38;;;;;;;12.13;10.13;;;;;;;29.07;49.76;98813.97;4865867;29;20040;-89
2022/08/14 04:21:04;;;;;;;12.82;10.10;;;;;;;29.06;49.66;98820.34;4865456;29;20443;-87
2022/08/14 04:23:32;;;;;;;13.73;11.45;;;;;;;29.09;49.64;98817.31;4896120;29;20104;-88
2022/08/14 04:25:59;;;;;;;12.13;9.98;;;;;;;29.10;49.85;98813.63;4865123;29;20029;-86
2022/08/14 04:28:25;;;;;;;13.57;9.43;;;;;;;29.05;50.06;98818.69;4865452;29;20100;-85
2022/08/14 04:30:51;;;;;;;12.57;10.48;;;;;;;29.07;49.77;98828.25;4881651;29;20032;-84
2022/08/14 04:33:17;;;;;;;12.05;10.23;;;;;;;29.05;49.65;98821.38;4895984;29;20033;-87
2022/08/14 04:35:43;;;;;;;12.68;10.50;;;;;;;29.02;49.89;98825.22;4865412;29;20029;-87
2022/08/14 04:43:39;;;;;;;13.95;10.65;;;;;;;29.02;49.99;98806.41;4882731;29;20530;-86
2022/08/14 04:46:11;;;;;;;13.50;10.57;;;;;;;29.07;49.47;98811.28;4887197;29;20056;-87
2022/08/14 04:48:38;;;;;;;17.30;11.30;;;;;;;29.07;50.00;98803.22;4899403;29;20033;-86
2022/08/14 04:51:06;;;;;;;13.85;11.68;;;;;;;29.08;49.69;98802.22;4898081;29;20065;-85
2022/08/14 04:53:33;;;;;;;13.23;11.40;;;;;;;29.08;49.80;98799.53;4881806;29;20036;-87
2022/08/14 04:55:59;;;;;;;14.93;10.70;;;;;;;29.05;50.07;98794.50;4883851;29;20029;-87
2022/08/14 04:58:31;;;;;;;14.23;11.57;;;;;;;29.06;49.62;98797.00;4882794;29;20033;-88
2022/08/14 05:00:58;;;;;;;14.13;11.55;;;;;;;29.10;49.75;98802.06;4867414;29;20447;-88
2022/08/14 05:03:30;;;;;;;14.30;11.18;;;;;;;29.00;49.82;98796.84;4898557;29;20039;-86
2022/08/14 05:05:59;;;;;;;12.23;10.75;;;;;;;28.93;50.08;98799.31;4866058;29;20444;-87
2022/08/14 05:08:25;;;;;;;13.32;11.18;;;;;;;28.90;50.32;98796.97;4897680;29;20037;-86
2022/08/14 05:10:53;;;;;;;13.88;11.38;;;;;;;28.86;50.18;98796.44;4865446;29;20048;-88
2022/08/14 05:13:22;;;;;;;13.63;11.43;;;;;;;28.87;50.03;98799.97;4880491;29;20506;-86
2022/08/14 05:15:48;;;;;;;15.27;10.75;;;;;;;28.83;50.28;98806.63;4880791;29;20033;-86
2022/08/14 05:18:22;;;;;;;14.55;11.43;;;;;;;28.82;50.17;98795.06;4896374;29;20025;-87
2022/08/14 05:20:54;;;;;;;14.85;10.80;;;;;;;28.81;50.34;98810.31;4895889;29;20053;-87
2022/08/14 05:23:30;;;;;;;13.82;10.98;;;;;;;28.81;50.39;98814.84;4896481;29;20470;-88
2022/08/14 05:26:16;;;;;;;14.63;10.77;;;;;;;28.74;50.50;98814.66;4895919;29;20029;-87
2022/08/14 05:28:43;;;;;;;;;;;;;;;28.70;50.76;98810.59;4884251;29;20033;-88
2022/08/14 05:31:10;;;;;;;13.40;10.77;;;;;;;28.69;50.57;98811.59;4884148;29;19954;-87
2022/08/14 05:33:37;;;;;;;15.18;11.02;;;;;;;28.66;50.60;98818.13;4868738;29;20344;-86
2022/08/14 05:36:06;;;;;;;14.80;10.45;;;;;;;28.65;50.56;98813.75;4868229;29;20033;-89
2022/08/14 05:38:35;;;;;;;12.10;10.65;;;;;;;28.67;50.60;98819.81;4900264;29;20021;-89
2022/08/14 05:41:04;;;;;;;13.88;10.48;;;;;;;28.63;50.73;98813.09;4901108;29;20036;-88
2022/08/14 05:43:30;;;;;;;13.15;11.07;;;;;;;28.59;50.74;98817.09;4885338;29;20044;-87
2022/08/14 05:45:59;;;;;;;13.85;10.75;;;;;;;28.56;50.67;98814.72;4885127;29;20477;-87
2022/08/14 05:48:25;;;;;;;15.23;10.30;;;;;;;28.55;50.96;98826.44;4899548;29;20466;-86
2022/08/14 05:50:54;;;;;;;12.25;9.75;;;;;;;28.50;50.98;98818.03;4900944;29;20044;-89
2022/08/14 05:53:22;;;;;;;13.40;10.43;;;;;;;28.49;51.04;98827.09;4901080;29;20046;-88
2022/08/14 05:55:49;;;;;;;13.73;11.23;;;;;;;28.50;51.07;98831.44;4900963;29;20040;-88
2022/08/14 05:58:14;;;;;;;13.77;10.40;;;;;;;28.49;50.99;98827.09;4885131;29;20101;-87
2022/08/14 06:00:43;;;;;;;12.70;10.60;;;;;;;28.49;50.84;98833.31;4885028;29;20454;-87
2022/08/14 06:03:13;;;;;;;14.05;10.40;;;;;;;28.46;50.92;98824.75;4900378;29;20029;-87
2022/08/14 06:05:40;;;;;;;14.40;10.82;;;;;;;28.43;51.25;98828.56;4870185;29;20021;-88
2022/08/14 06:08:15;;;;;;;12.95;10.80;;;;;;;28.41;51.17;98820.69;4871400;29;20061;-89
2022/08/14 06:10:41;;;;;;;14.93;10.17;;;;;;;28.40;51.09;98821.69;4903763;29;20096;-88
2022/08/14 06:13:06;;;;;;;14.68;11.02;;;;;;;28.40;51.19;98813.63;4874134;29;20033;-86
2022/08/14 06:15:32;;;;;;;12.70;9.93;;;;;;;28.37;51.23;98823.84;4885340;29;20032;-87
2022/08/14 06:17:58;;;;;;;14.02;11.20;;;;;;;28.36;51.29;98828.34;4883121;29;20025;-86
2022/08/14 06:20:24;;;;;;;14.95;10.85;;;;;;;28.38;51.17;98826.34;4867344;29;20036;-88
2022/08/14 06:22:50;;;;;;;16.60;11.48;;;;;;;28.43;50.97;98827.72;4883919;29;20383;-87
2022/08/14 06:25:16;;;;;;;11.55;10.05;;;;;;;28.38;51.33;98825.53;4867908;29;20082;-86
2022/08/14 06:27:44;;;;;;;14.52;11.45;;;;;;;28.42;51.15;98826.88;4884787;29;20029;-87
2022/08/14 06:30:14;;;;;;;13.98;10.43;;;;;;;28.36;51.24;98828.34;4883341;29;20136;-87
2022/08/14 06:32:39;;;;;;;16.20;11.23;;;;;;;28.41;51.40;98826.03;4899328;29;20080;-88
2022/08/14 06:35:08;;;;;;;13.35;10.85;;;;;;;28.43;51.17;98828.56;4903844;29;20028;-85
2022/08/14 06:37:45;;;;;;;12.10;10.18;;;;;;;28.43;51.26;98827.72;4889824;29;20029;-87
2022/08/14 06:40:12;;;;;;;13.98;10.95;;;;;;;28.40;51.25;98835.09;4869297;29;20377;-85
2022/08/14 06:42:39;;;;;;;14.25;10.68;;;;;;;28.43;51.30;98838.47;4898047;29;20033;-86
2022/08/14 06:45:06;;;;;;;13.07;10.80;;;;;;;28.41;51.37;98835.91;4872301;29;20033;-87
2022/08/14 06:47:37;;;;;;;13.15;11.13;;;;;;;28.40;51.37;98851.19;4870736;29;20092;-87
2022/08/14 06:50:04;;;;;;;13.98;11.15;;;;;;;28.44;51.53;98846.34;4900670;29;20033;-86
2022/08/14 06:52:30;;;;;;;14.63;11.20;;;;;;;28.47;51.39;98850.56;4885126;29;20081;-85
2022/08/14 06:54:57;;;;;;;17.05;11.85;;;;;;;28.47;51.56;98845.19;4884337;29;20052;-86
2022/08/14 06:57:23;;;;;;;12.63;10.73;;;;;;;28.44;51.38;98850.88;4900237;29;20021;-85
2022/08/14 06:59:49;;;;;;;14.60;11.10;;;;;;;28.44;51.70;98845.50;4903115;29;20145;-85
2022/08/14 07:07:43;;;;;;;14.30;10.52;;;;;;;28.37;51.88;98840.75;4884902;29;20097;-88
2022/08/14 07:10:09;;;;;;;13.30;10.35;;;;;;;28.38;51.38;98831.72;4903212;29;20052;-87
2022/08/14 07:12:40;;;;;;;14.15;10.77;;;;;;;28.38;51.71;98831.72;4868386;29;20184;-88
2022/08/14 07:15:06;;;;;;;12.38;10.18;;;;;;;28.44;51.40;98832.09;4899934;29;20039;-87
2022/08/14 07:17:32;;;;;;;12.85;11.20;;;;;;;28.47;51.41;98826.41;4899005;29;20095;-85
2022/08/14 07:19:58;;;;;;;14.15;11.73;;;;;;;28.44;51.50;98824.88;4884832;29;20053;-86
2022/08/14 07:22:23;;;;;;;13.18;11.20;;;;;;;28.48;51.27;98828.09;4883620;29;20037;-86
2022/08/14 07:24:49;;;;;;;12.63;10.93;;;;;;;28.48;51.07;98815.50;4869797;29;20043;-85
2022/08/14 07:27:14;;;;;;;15.40;11.80;;;;;;;28.46;51.33;98817.50;4884842;29;20033;-84
2022/08/14 07:29:41;;;;;;;13.75;11.00;;;;;;;28.51;51.21;98811.66;4885123;29;20025;-86
2022/08/14 07:32:10;;;;;;;14.38;11.50;;;;;;;28.53;51.20;98810.50;4871369;29;20040;-85
2022/08/14 07:34:36;;;;;;;18.13;10.90;;;;;;;28.55;50.98;98810.34;4869672;29;20112;-84
2022/08/14 07:37:02;;;;;;;15.05;10.77;;;;;;;28.53;51.08;98812.38;4884616;29;20024;-85
2022/08/14 07:39:28;;;;;;;16.38;10.85;;;;;;;28.50;51.30;98802.78;4899183;29;20033;-86
2022/08/14 07:41:53;;;;;;;16.85;11.23;;;;;;;28.50;51.21;98807.31;4884439;29;20073;-86
2022/08/14 07:44:19;;;;;;;16.02;10.35;;;;;;;28.49;50.89;98801.09;4900095;29;20045;-86
2022/08/14 07:46:53;;;;;;;15.98;11.02;;;;;;;28.52;51.08;98799.94;4883409;29;20703;-85
2022/08/14 07:49:20;;;;;;;13.38;11.27;;;;;;;28.54;50.79;98804.16;4900905;29;20029;-86
2022/08/14 07:51:46;;;;;;;15.73;11.25;;;;;;;28.56;50.87;98806.66;4901632;29;20024;-85
2022/08/14 07:54:12;;;;;;;13.35;10.65;;;;;;;28.57;51.15;98802.16;4869840;29;20036;-86
2022/08/14 07:56:40;;;;;;;15.10;10.43;;;;;;;28.59;50.81;98809.03;4900988;29;20029;-87
2022/08/14 07:59:06;;;;;;;12.48;10.55;;;;;;;28.57;51.21;98805.66;4899438;29;20089;-88
2022/08/14 08:01:33;;;;;;;14.05;10.18;;;;;;;28.60;50.76;98808.03;4868487;29;20028;-86
2022/08/14 08:04:02;;;;;;;14.80;10.73;;;;;;;28.62;50.72;98806.03;4898969;29;20033;-85
2022/08/14 08:06:28;;;;;;;12.90;10.85;;;;;;;28.64;51.21;98803.19;4900674;29;20371;-85
2022/08/14 08:09:01;;;;;;;16.13;10.57;;;;;;;28.62;50.93;98795.28;4872377;29;20021;-84
2022/08/14 08:11:31;;;;;;;13.02;9.80;;;;;;;28.62;51.00;98800.66;4883029;29;20071;-87
2022/08/14 08:13:58;;;;;;;13.93;9.98;;;;;;;28.65;51.02;98789.59;4868036;29;20032;-87
2022/08/14 08:16:37;;;;;;;;;;;;;;;;;;;;;
2022/08/14 08:19:06;;;;;;;12.00;9.43;;;;;;;28.65;51.06;98789.59;4887062;29;20104;-86
2022/08/14 08:21:38;;;;;;;13.10;9.88;;;;;;;28.67;50.89;98792.97;4899786;29;20032;-86
2022/08/14 08:24:19;;;;;;;11.82;9.77;;;;;;;28.70;50.61;98790.97;4899708;29;20033;-88
2022/08/14 08:27:59;;;;;;;10.60;9.13;;;;;;;28.73;51.03;98798.69;4899220;29;20033;-87
2022/08/14 10:37:10;;;;;;;10.37;8.87;;;;;;;29.11;48.09;98836.81;5042315;23;20127;-84
2022/08/14 10:39:38;;;;;;;17.17;8.70;;;;;;;29.12;48.11;98826.91;4887938;29;20328;-84
2022/08/14 10:42:13;;;;;;;29.02;11.07;;;;;;;29.13;48.06;98829.44;4906917;29;20442;-85
2022/08/14 10:44:46;;;;;;;24.13;11.63;;;;;;;29.14;47.86;98828.44;4902658;29;20035;-82
2022/08/14 10:47:46;;;;;;;20.67;10.45;;;;;;;29.15;47.92;98832.78;4904567;29;20497;-83
2022/08/14 10:50:22;;;;;;;17.63;12.02;;;;;;;29.16;47.78;98825.59;4889609;29;20128;-84
2022/08/14 10:53:16;;;;;;;19.42;12.52;;;;;;;29.18;47.71;98832.47;4886723;29;20088;-85
2022/08/14 10:55:58;;;;;;;15.23;11.32;;;;;;;29.17;47.92;98825.44;4886679;29;20043;-84
2022/08/14 10:58:30;;;;;;;16.30;11.07;;;;;;;29.17;47.50;98828.13;4888499;29;20088;-84
2022/08/14 11:00:59;;;;;;;14.63;11.60;;;;;;;29.20;47.03;98825.09;4890569;29;20075;-84
2022/08/14 11:03:51;;;;;;;14.75;10.73;;;;;;;29.20;47.34;98818.88;4889943;29;20068;-84
2022/08/14 11:06:22;;;;;;;14.25;11.02;;;;;;;29.19;47.04;98820.72;4891501;29;20035;-86
2022/08/14 11:08:52;;;;;;;14.27;10.52;;;;;;;29.21;46.97;98820.56;4904027;29;20048;-85
2022/08/14 11:11:37;;;;;;;20.92;11.63;;;;;;;29.22;46.63;98816.88;4888351;29;20043;-82
2022/08/14 11:14:07;;;;;;;18.15;10.70;;;;;;;29.20;46.85;98808.97;4887406;29;20108;-86
2022/08/14 11:16:34;;;;;;;14.88;9.95;;;;;;;29.23;46.72;98812.34;4887715;29;20130;-86
2022/08/14 11:19:10;;;;;;;12.52;9.23;;;;;;;29.24;46.86;98805.97;4904304;29;20028;-84
2022/08/14 11:21:40;;;;;;;11.43;9.20;;;;;;;29.24;46.98;98808.66;4886113;29;20056;-87
2022/08/14 11:24:13;;;;;;;13.10;9.07;;;;;;;29.29;46.91;98812.50;4888281;29;20036;-86
2022/08/14 11:29:56;;;;;;;9.32;6.60;;;;;;;29.36;46.14;98807.34;4905584;29;20497;-86
2022/08/14 11:32:24;;;;;;;9.35;6.72;;;;;;;29.35;46.42;98811.03;4891380;29;20035;-87
2022/08/14 11:34:52;;;;;;;9.80;7.78;;;;;;;29.35;46.33;98802.97;4892077;29;20381;-85
2022/08/14 11:37:20;;;;;;;9.85;8.38;;;;;;;29.37;46.28;98803.63;4890365;29;20355;-87
2022/08/14 11:39:47;;;;;;;13.07;9.02;;;;;;;29.38;46.48;98801.81;4902535;29;20032;-86
2022/08/14 11:42:24;;;;;;;13.57;9.50;;;;;;;29.39;46.27;98801.63;4886597;29;20071;-85
2022/08/14 11:44:52;;;;;;;11.98;9.48;;;;;;;29.39;46.12;98809.69;4886267;29;20029;-86
2022/08/14 11:47:18;;;;;;;11.73;9.18;;;;;;;29.40;46.12;98808.69;4886976;29;20031;-86
2022/08/14 11:49:52;;;;;;;12.02;9.43;;;;;;;29.40;46.33;98797.94;4886701;29;20048;-84
2022/08/14 11:52:18;;;;;;;12.15;9.23;;;;;;;29.42;46.01;98790.56;4902797;29;20354;-88
2022/08/14 11:54:57;;;;;;;13.30;9.48;;;;;;;29.41;46.21;98794.25;4887733;29;20056;-86
2022/08/14 11:57:29;;;;;;;14.52;10.40;;;;;;;29.43;46.15;98802.97;4885696;29;20382;-86
2022/08/14 12:00:25;;;;;;;12.77;11.48;;;;;;;29.44;46.25;98788.53;4885423;29;20029;-86
2022/08/14 12:03:01;;;;;;;14.32;12.70;;;;;;;29.43;46.50;98786.84;4902406;29;20036;-86
2022/08/14 12:05:37;;;;;;;16.08;13.30;;;;;;;29.44;46.27;98783.16;4902626;29;20470;-87
2022/08/14 12:08:07;;;;;;;16.45;12.20;;;;;;;29.45;46.29;98779.44;4901371;29;20133;-83
2022/08/14 12:10:38;;;;;;;16.58;11.93;;;;;;;29.46;46.51;98786.53;4901853;29;20043;-85
2022/08/14 12:13:15;;;;;;;17.60;12.80;;;;;;;29.48;46.29;98783.69;4899525;29;20444;-84
2022/08/14 12:15:48;;;;;;;16.00;11.63;;;;;;;29.53;46.21;98788.59;4884355;29;20033;-85
2022/08/14 12:18:14;;;;;;;14.35;10.70;;;;;;;29.54;46.02;98782.19;4899824;29;20039;-82
2022/08/14 12:20:45;;;;;;;12.40;10.10;;;;;;;29.56;45.80;98780.19;4901309;29;20091;-84
2022/08/14 12:23:23;;;;;;;13.57;9.35;;;;;;;29.55;45.84;98783.88;4899000;29;20043;-84
2022/08/14 12:25:49;;;;;;;10.32;8.95;;;;;;;29.57;45.66;98776.47;4883825;29;20028;-87
2022/08/14 12:28:15;;;;;;;10.50;8.27;;;;;;;29.58;45.59;98778.19;4883540;29;20477;-83
2022/08/14 12:30:43;;;;;;;7.40;5.93;;;;;;;29.63;45.28;98775.81;4883412;29;20036;-84
2022/08/14 12:33:24;;;;;;;8.80;6.32;;;;;;;29.66;44.84;98770.09;4884128;29;20064;-82
2022/08/14 12:36:21;;;;;;;8.55;5.88;;;;;;;29.70;45.00;98759.84;4883661;29;20048;-83
2022/08/14 12:38:49;;;;;;;12.60;6.20;;;;;;;29.68;44.77;98773.47;4883105;29;20474;-82
2022/08/14 12:41:21;;;;;;;9.27;6.68;;;;;;;29.65;44.61;98763.06;4899977;29;20044;-83
2022/08/14 12:43:55;;;;;;;9.50;7.25;;;;;;;29.65;44.98;98759.50;4899975;29;20028;-82
2022/08/14 12:46:46;;;;;;;10.20;7.50;;;;;;;29.67;44.90;98766.41;4883123;29;20033;-84
2022/08/14 12:49:24;;;;;;;12.55;6.50;;;;;;;29.73;44.87;98757.66;4898437;29;20489;-83
2022/08/14 12:52:00;;;;;;;8.63;6.32;;;;;;;29.78;44.72;98756.34;4899430;29;20028;-83
2022/08/14 12:54:30;;;;;;;9.38;6.00;;;;;;;29.82;44.54;98741.53;4888403;29;20055;-84
2022/08/14 12:57:06;;;;;;;8.63;5.50;;;;;;;29.85;43.63;98746.56;4900794;29;20029;-83
2022/08/14 12:59:46;;;;;;;9.48;4.85;;;;;;;29.84;43.69;98740.38;4883626;29;20569;-82
2022/08/14 13:02:39;;;;;;;8.05;4.97;;;;;;;29.83;43.82;98737.84;4899580;29;20057;-82
2022/08/14 13:05:08;;;;;;;7.32;4.95;;;;;;;29.83;43.86;98732.47;4898749;29;20426;-83
2022/08/14 13:07:38;;;;;;;8.38;5.63;;;;;;;29.87;43.80;98733.78;4899724;29;20108;-82
2022/08/14 13:10:13;;;;;;;10.68;6.68;;;;;;;29.85;43.79;98735.81;4899846;29;20032;-83
2022/08/14 13:12:51;;;;;;;;;;;;;;;;;;;;;
2022/08/14 13:15:30;;;;;;;8.30;6.47;;;;;;;29.89;43.71;98731.78;4899454;29;20031;-82
2022/08/14 13:18:03;;;;;;;8.93;6.15;;;;;;;29.88;43.30;98730.94;4902406;29;20038;-84
2022/08/14 13:20:33;;;;;;;8.43;6.32;;;;;;;29.91;43.64;98732.44;4882762;29;20039;-85
2022/08/14 13:23:01;;;;;;;8.35;6.07;;;;;;;29.92;43.21;98726.06;4883081;29;20097;-84
2022/08/14 13:25:31;;;;;;;10.82;6.30;;;;;;;29.93;43.39;98721.53;4899794;29;20033;-84
2022/08/14 13:28:01;;;;;;;8.30;5.38;;;;;;;29.93;43.22;98717.00;4883530;29;20024;-85
2022/08/14 13:30:27;;;;;;;10.02;6.75;;;;;;;29.95;43.87;98720.34;4900378;29;20024;-84
2022/08/14 13:33:05;;;;;;;8.65;6.05;;;;;;;29.96;43.17;98715.78;4899452;29;20032;-85
2022/08/14 13:35:31;;;;;;;11.25;6.03;;;;;;;29.96;43.55;98727.41;4900674;29;20070;-84
2022/08/14 13:37:57;;;;;;;10.73;6.88;;;;;;;29.95;43.40;98731.09;4883459;29;20024;-85
2022/08/14 13:40:23;;;;;;;7.38;6.00;;;;;;;29.94;43.13;98724.06;4884228;29;20028;-86
2022/08/14 13:42:52;;;;;;;8.32;6.55;;;;;;;29.96;43.73;98726.53;4901341;29;20107;-87
2022/08/14 13:45:22;;;;;;;10.30;6.75;;;;;;;30.00;42.95;98723.38;4887328;29;20127;-87
2022/08/14 13:47:51;;;;;;;11.07;6.25;;;;;;;30.01;42.48;98716.13;4888135;29;20040;-86
2022/08/14 13:50:19;;;;;;;7.05;6.00;;;;;;;30.04;42.71;98723.00;4889462;29;20097;-87
2022/08/14 13:52:53;;;;;;;6.90;5.18;;;;;;;30.05;42.33;98716.59;4909879;29;20366;-86
2022/08/14 13:55:23;;;;;;;8.32;5.20;;;;;;;30.06;42.14;98715.63;4886348;29;20474;-86
2022/08/14 13:57:54;;;;;;;11.38;5.90;;;;;;;30.08;42.97;98702.84;4901455;29;20088;-84
2022/08/14 14:00:23;;;;;;;8.43;5.57;;;;;;;30.10;42.59;98703.53;4902549;29;20362;-85